sensor_id;sensor_type;location;lat;lon;timestamp;pressure;altitude;pressure_sealevel;temperature;humidity
28935;BME280;16044;52.726;-2.108;2022-12-16T00:02:06;100673.19;;;-7.32;94.14
28935;BME280;16044;52.726;-2.108;2022-12-16T00:04:33;100668.03;;;-7.35;94.49
28935;BME280;16044;52.726;-2.108;2022-12-16T00:07:00;100667.16;;;-7.35;94.48
28935;BME280;16044;52.726;-2.108;2022-12-16T00:09:27;100668.94;;;-7.36;94.38
28935;BME280;16044;52.726;-2.108;2022-12-16T00:11:54;100656.78;;;-7.38;94.13
28935;BME280;16044;52.726;-2.108;2022-12-16T00:14:21;100659.44;;;-7.40;94.38
28935;BME280;16044;52.726;-2.108;2022-12-16T00:16:47;100657.72;;;-7.41;94.36
28935;BME280;16044;52.726;-2.108;2022-12-16T00:19:15;100664.81;;;-7.43;94.67
28935;BME280;16044;52.726;-2.108;2022-12-16T00:21:42;100649.03;;;-7.43;94.29
28935;BME280;16044;52.726;-2.108;2022-12-16T00:24:09;100660.53;;;-7.46;94.84
28935;BME280;16044;52.726;-2.108;2022-12-16T00:26:36;100662.31;;;-7.46;94.81
28935;BME280;16044;52.726;-2.108;2022-12-16T00:29:03;100669.28;;;-7.45;94.57
28935;BME280;16044;52.726;-2.108;2022-12-16T00:31:31;100670.22;;;-7.46;94.52
28935;BME280;16044;52.726;-2.108;2022-12-16T00:33:58;100672.06;;;-7.48;94.68
28935;BME280;16044;52.726;-2.108;2022-12-16T00:36:25;100675.66;;;-7.51;94.65
28935;BME280;16044;52.726;-2.108;2022-12-16T00:38:52;100680.00;;;-7.50;94.46
28935;BME280;16044;52.726;-2.108;2022-12-16T00:41:19;100673.91;;;-7.50;94.60
28935;BME280;16044;52.726;-2.108;2022-12-16T00:43:46;100664.22;;;-7.50;93.92
28935;BME280;16044;52.726;-2.108;2022-12-16T00:46:13;100665.91;;;-7.49;93.83
28935;BME280;16044;52.726;-2.108;2022-12-16T00:48:40;100662.56;;;-7.52;94.05
28935;BME280;16044;52.726;-2.108;2022-12-16T00:51:07;100658.19;;;-7.53;94.21
28935;BME280;16044;52.726;-2.108;2022-12-16T00:53:34;100663.47;;;-7.53;94.13
28935;BME280;16044;52.726;-2.108;2022-12-16T00:56:09;100653.03;;;-7.56;94.20
28935;BME280;16044;52.726;-2.108;2022-12-16T00:58:37;100661.88;;;-7.57;93.93
28935;BME280;16044;52.726;-2.108;2022-12-16T01:01:04;100666.34;;;-7.59;94.03
28935;BME280;16044;52.726;-2.108;2022-12-16T01:03:33;100665.53;;;-7.61;94.28
28935;BME280;16044;52.726;-2.108;2022-12-16T01:06:07;100663.00;;;-7.65;94.52
28935;BME280;16044;52.726;-2.108;2022-12-16T01:08:38;100657.78;;;-7.66;94.66
28935;BME280;16044;52.726;-2.108;2022-12-16T01:11:05;100661.28;;;-7.66;94.47
28935;BME280;16044;52.726;-2.108;2022-12-16T01:13:32;100660.47;;;-7.68;94.75
28935;BME280;16044;52.726;-2.108;2022-12-16T01:16:00;100665.75;;;-7.68;94.53
28935;BME280;16044;52.726;-2.108;2022-12-16T01:18:28;100670.16;;;-7.68;94.40
28935;BME280;16044;52.726;-2.108;2022-12-16T01:21:01;100672.00;;;-7.70;94.25
28935;BME280;16044;52.726;-2.108;2022-12-16T01:23:30;100675.53;;;-7.71;94.27
28935;BME280;16044;52.726;-2.108;2022-12-16T01:25:58;100668.66;;;-7.75;94.54
28935;BME280;16044;52.726;-2.108;2022-12-16T01:28:27;100679.19;;;-7.75;94.34
28935;BME280;16044;52.726;-2.108;2022-12-16T01:30:59;100682.78;;;-7.78;94.26
28935;BME280;16044;52.726;-2.108;2022-12-16T01:33:31;100688.06;;;-7.78;93.63
28935;BME280;16044;52.726;-2.108;2022-12-16T01:36:04;100694.34;;;-7.82;93.93
28935;BME280;16044;52.726;-2.108;2022-12-16T01:38:36;100692.53;;;-7.80;93.24
28935;BME280;16044;52.726;-2.108;2022-12-16T01:41:04;100696.06;;;-7.81;93.34
28935;BME280;16044;52.726;-2.108;2022-12-16T01:43:34;100687.34;;;-7.83;93.42
28935;BME280;16044;52.726;-2.108;2022-12-16T01:46:22;100693.66;;;-7.87;94.05
28935;BME280;16044;52.726;-2.108;2022-12-16T01:48:54;100703.28;;;-7.86;94.30
28935;BME280;16044;52.726;-2.108;2022-12-16T01:51:41;100705.94;;;-7.88;94.15
28935;BME280;16044;52.726;-2.108;2022-12-16T01:54:23;100705.16;;;-7.90;94.14
28935;BME280;16044;52.726;-2.108;2022-12-16T01:56:58;100711.31;;;-7.91;93.75
28935;BME280;16044;52.726;-2.108;2022-12-16T01:59:28;100712.25;;;-7.92;93.61
28935;BME280;16044;52.726;-2.108;2022-12-16T02:01:57;100714.06;;;-7.94;93.92
28935;BME280;16044;52.726;-2.108;2022-12-16T02:04:25;100714.13;;;-7.95;93.90
28935;BME280;16044;52.726;-2.108;2022-12-16T02:06:52;100714.13;;;-7.95;93.64
28935;BME280;16044;52.726;-2.108;2022-12-16T02:09:20;100722.09;;;-7.98;93.62
28935;BME280;16044;52.726;-2.108;2022-12-16T02:18:30;100724.94;;;-8.05;92.99
28935;BME280;16044;52.726;-2.108;2022-12-16T02:21:07;100730.31;;;-8.08;93.00
28935;BME280;16044;52.726;-2.108;2022-12-16T02:23:45;100723.34;;;-8.09;93.27
28935;BME280;16044;52.726;-2.108;2022-12-16T02:27:08;100731.28;;;-8.10;92.86
28935;BME280;16044;52.726;-2.108;2022-12-16T02:38:32;100721.88;;;-8.17;93.72
28935;BME280;16044;52.726;-2.108;2022-12-16T02:44:52;100727.22;;;-8.20;93.33
28935;BME280;16044;52.726;-2.108;2022-12-16T02:47:27;100725.53;;;-8.21;93.51
28935;BME280;16044;52.726;-2.108;2022-12-16T02:49:54;100723.75;;;-8.21;93.25
28935;BME280;16044;52.726;-2.108;2022-12-16T02:52:24;100732.56;;;-8.22;93.64
28935;BME280;16044;52.726;-2.108;2022-12-16T02:54:58;100734.31;;;-8.23;93.24
28935;BME280;16044;52.726;-2.108;2022-12-16T03:00:11;100730.78;;;-8.21;92.53
28935;BME280;16044;52.726;-2.108;2022-12-16T03:02:56;100729.00;;;-8.21;92.77
28935;BME280;16044;52.726;-2.108;2022-12-16T03:05:38;100722.03;;;-8.22;93.06
28935;BME280;16044;52.726;-2.108;2022-12-16T03:08:12;100723.78;;;-8.23;93.34
28935;BME280;16044;52.726;-2.108;2022-12-16T03:10:44;100724.66;;;-8.22;93.68
28935;BME280;16044;52.726;-2.108;2022-12-16T03:13:16;100720.22;;;-8.20;93.33
28935;BME280;16044;52.726;-2.108;2022-12-16T03:15:47;100724.66;;;-8.22;93.66
28935;BME280;16044;52.726;-2.108;2022-12-16T03:18:15;100720.22;;;-8.20;93.31
28935;BME280;16044;52.726;-2.108;2022-12-16T03:23:26;100722.94;;;-8.23;93.55
28935;BME280;16044;52.726;-2.108;2022-12-16T03:26:04;100722.09;;;-8.24;93.39
28935;BME280;16044;52.726;-2.108;2022-12-16T03:37:05;100722.34;;;-8.31;93.72
28935;BME280;16044;52.726;-2.108;2022-12-16T03:39:38;100715.34;;;-8.32;93.31
28935;BME280;16044;52.726;-2.108;2022-12-16T03:42:09;100716.28;;;-8.33;93.20
28935;BME280;16044;52.726;-2.108;2022-12-16T03:44:37;100717.19;;;-8.34;93.01
28935;BME280;16044;52.726;-2.108;2022-12-16T03:47:04;100715.47;;;-8.35;93.23
28935;BME280;16044;52.726;-2.108;2022-12-16T03:49:31;100720.75;;;-8.35;93.50
28935;BME280;16044;52.726;-2.108;2022-12-16T03:51:58;100724.22;;;-8.35;93.48
28935;BME280;16044;52.726;-2.108;2022-12-16T03:54:25;100720.75;;;-8.35;93.12
28935;BME280;16044;52.726;-2.108;2022-12-16T03:56:52;100723.41;;;-8.37;93.57
28935;BME280;16044;52.726;-2.108;2022-12-16T03:59:19;100730.50;;;-8.39;93.52
28935;BME280;16044;52.726;-2.108;2022-12-16T04:01:46;100737.50;;;-8.39;93.02
28935;BME280;16044;52.726;-2.108;2022-12-16T04:04:13;100733.16;;;-8.40;92.82
28935;BME280;16044;52.726;-2.108;2022-12-16T04:06:40;100735.09;;;-8.46;93.71
28935;BME280;16044;52.726;-2.108;2022-12-16T04:09:07;100742.03;;;-8.43;93.22
28935;BME280;16044;52.726;-2.108;2022-12-16T04:11:34;100740.28;;;-8.43;92.85
28935;BME280;16044;52.726;-2.108;2022-12-16T04:14:20;100737.72;;;-8.46;93.00
28935;BME280;16044;52.726;-2.108;2022-12-16T04:17:05;100734.31;;;-8.48;92.71
28935;BME280;16044;52.726;-2.108;2022-12-16T04:19:55;100738.75;;;-8.50;93.17
28935;BME280;16044;52.726;-2.108;2022-12-16T04:22:42;100737.97;;;-8.53;93.36
28935;BME280;16044;52.726;-2.108;2022-12-16T04:25:31;100744.09;;;-8.53;93.46
28935;BME280;16044;52.726;-2.108;2022-12-16T04:28:01;100738.75;;;-8.50;93.22
28935;BME280;16044;52.726;-2.108;2022-12-16T04:30:30;100741.41;;;-8.51;93.51
28935;BME280;16044;52.726;-2.108;2022-12-16T04:33:03;100737.13;;;-8.54;93.40
28935;BME280;16044;52.726;-2.108;2022-12-16T04:35:53;100745.03;;;-8.54;93.17
28935;BME280;16044;52.726;-2.108;2022-12-16T04:38:39;100744.22;;;-8.56;93.46
28935;BME280;16044;52.726;-2.108;2022-12-16T04:41:24;100750.31;;;-8.55;93.16
28935;BME280;16044;52.726;-2.108;2022-12-16T04:44:10;100744.22;;;-8.56;93.40
28935;BME280;16044;52.726;-2.108;2022-12-16T04:46:55;100750.31;;;-8.55;93.25
28935;BME280;16044;52.726;-2.108;2022-12-16T04:49:54;100746.03;;;-8.58;93.41
28935;BME280;16044;52.726;-2.108;2022-12-16T04:52:40;100750.41;;;-8.58;92.85
28935;BME280;16044;52.726;-2.108;2022-12-16T04:55:25;100753.06;;;-8.60;92.80
28935;BME280;16044;52.726;-2.108;2022-12-16T04:58:10;100758.34;;;-8.60;92.50
28935;BME280;16044;52.726;-2.108;2022-12-16T05:00:56;100753.19;;;-8.63;92.48
28935;BME280;16044;52.726;-2.108;2022-12-16T05:03:41;100746.19;;;-8.64;92.71
28935;BME280;16044;52.726;-2.108;2022-12-16T05:06:27;100750.66;;;-8.66;92.34
28935;BME280;16044;52.726;-2.108;2022-12-16T05:09:13;100752.44;;;-8.67;92.26
28935;BME280;16044;52.726;-2.108;2022-12-16T05:11:58;100741.06;;;-8.67;92.48
28935;BME280;16044;52.726;-2.108;2022-12-16T05:14:44;100740.25;;;-8.69;92.35
28935;BME280;16044;52.726;-2.108;2022-12-16T05:17:29;100738.53;;;-8.70;92.55
28935;BME280;16044;52.726;-2.108;2022-12-16T05:20:14;100733.31;;;-8.72;92.43
28935;BME280;16044;52.726;-2.108;2022-12-16T05:23:00;100726.34;;;-8.73;93.04
28935;BME280;16044;52.726;-2.108;2022-12-16T05:25:45;100727.19;;;-8.72;92.96
28935;BME280;16044;52.726;-2.108;2022-12-16T05:28:30;100719.31;;;-8.72;93.43
28935;BME280;16044;52.726;-2.108;2022-12-16T05:31:16;100727.19;;;-8.72;92.35
28935;BME280;16044;52.726;-2.108;2022-12-16T05:34:01;100723.69;;;-8.71;92.35
28935;BME280;16044;52.726;-2.108;2022-12-16T05:36:46;100718.50;;;-8.74;92.80
28935;BME280;16044;52.726;-2.108;2022-12-16T05:39:32;100725.59;;;-8.76;92.57
28935;BME280;16044;52.726;-2.108;2022-12-16T05:42:17;100724.72;;;-8.77;92.43
28935;BME280;16044;52.726;-2.108;2022-12-16T05:45:03;100723.97;;;-8.80;92.89
28935;BME280;16044;52.726;-2.108;2022-12-16T05:47:48;100733.59;;;-8.81;93.13
28935;BME280;16044;52.726;-2.108;2022-12-16T05:50:34;100722.22;;;-8.82;92.99
28935;BME280;16044;52.726;-2.108;2022-12-16T05:53:21;100724.91;;;-8.83;92.58
28935;BME280;16044;52.726;-2.108;2022-12-16T05:56:08;100729.25;;;-8.82;92.35
28935;BME280;16044;52.726;-2.108;2022-12-16T05:58:54;100723.16;;;-8.83;92.24
28935;BME280;16044;52.726;-2.108;2022-12-16T06:01:39;100724.88;;;-8.82;92.28
28935;BME280;16044;52.726;-2.108;2022-12-16T06:04:24;100727.50;;;-8.82;92.06
28935;BME280;16044;52.726;-2.108;2022-12-16T06:07:10;100733.66;;;-8.83;92.80
28935;BME280;16044;52.726;-2.108;2022-12-16T06:09:55;100730.06;;;-8.80;92.51
28935;BME280;16044;52.726;-2.108;2022-12-16T06:12:40;100729.22;;;-8.80;91.96
28935;BME280;16044;52.726;-2.108;2022-12-16T06:15:28;100735.41;;;-8.83;92.29
28935;BME280;16044;52.726;-2.108;2022-12-16T06:18:13;100734.56;;;-8.84;92.32
28935;BME280;16044;52.726;-2.108;2022-12-16T06:20:59;100745.06;;;-8.84;92.04
28935;BME280;16044;52.726;-2.108;2022-12-16T06:23:44;100743.34;;;-8.85;92.42
28935;BME280;16044;52.726;-2.108;2022-12-16T06:26:30;100743.34;;;-8.85;93.18
28935;BME280;16044;52.726;-2.108;2022-12-16T06:29:15;100748.59;;;-8.85;92.70
28935;BME280;16044;52.726;-2.108;2022-12-16T06:32:00;100742.44;;;-8.84;92.38
28935;BME280;16044;52.726;-2.108;2022-12-16T06:34:46;100749.50;;;-8.86;92.65
28935;BME280;16044;52.726;-2.108;2022-12-16T06:37:31;100753.94;;;-8.88;92.61
28935;BME280;16044;52.726;-2.108;2022-12-16T06:40:16;100740.06;;;-8.91;92.46
28935;BME280;16044;52.726;-2.108;2022-12-16T06:43:01;100749.75;;;-8.93;91.95
28935;BME280;16044;52.726;-2.108;2022-12-16T06:45:47;100752.50;;;-8.98;92.13
28935;BME280;16044;52.726;-2.108;2022-12-16T06:48:32;100771.81;;;-8.99;91.65
28935;BME280;16044;52.726;-2.108;2022-12-16T06:51:18;100766.63;;;-9.02;91.50
28935;BME280;16044;52.726;-2.108;2022-12-16T06:54:03;100772.88;;;-9.06;91.85
28935;BME280;16044;52.726;-2.108;2022-12-16T06:56:49;100772.06;;;-9.08;92.04
28935;BME280;16044;52.726;-2.108;2022-12-16T06:59:34;100781.72;;;-9.09;91.85
28935;BME280;16044;52.726;-2.108;2022-12-16T07:02:20;100783.47;;;-9.09;91.63
28935;BME280;16044;52.726;-2.108;2022-12-16T07:05:06;100783.53;;;-9.11;92.05
28935;BME280;16044;52.726;-2.108;2022-12-16T07:07:51;100780.94;;;-9.12;91.90
28935;BME280;16044;52.726;-2.108;2022-12-16T07:10:37;100776.59;;;-9.13;91.59
28935;BME280;16044;52.726;-2.108;2022-12-16T07:13:39;100778.41;;;-9.15;91.45
28935;BME280;16044;52.726;-2.108;2022-12-16T07:16:24;100773.25;;;-9.18;92.11
28935;BME280;16044;52.726;-2.108;2022-12-16T07:19:09;100774.13;;;-9.18;91.96
28935;BME280;16044;52.726;-2.108;2022-12-16T07:21:55;100778.50;;;-9.18;91.64
28935;BME280;16044;52.726;-2.108;2022-12-16T07:24:40;100782.03;;;-9.19;91.89
28935;BME280;16044;52.726;-2.108;2022-12-16T07:27:26;100786.38;;;-9.18;91.83
28935;BME280;16044;52.726;-2.108;2022-12-16T07:30:11;100778.59;;;-9.22;91.85
28935;BME280;16044;52.726;-2.108;2022-12-16T07:32:57;100781.19;;;-9.20;91.81
28935;BME280;16044;52.726;-2.108;2022-12-16T07:35:42;100773.28;;;-9.20;91.77
28935;BME280;16044;52.726;-2.108;2022-12-16T07:38:28;100770.72;;;-9.22;92.10
28935;BME280;16044;52.726;-2.108;2022-12-16T07:41:13;100778.56;;;-9.20;92.39
28935;BME280;16044;52.726;-2.108;2022-12-16T07:44:12;100782.91;;;-9.21;92.28
28935;BME280;16044;52.726;-2.108;2022-12-16T07:46:58;100783.75;;;-9.18;91.90
28935;BME280;16044;52.726;-2.108;2022-12-16T07:49:43;100784.66;;;-9.19;91.84
28935;BME280;16044;52.726;-2.108;2022-12-16T07:52:29;100792.53;;;-9.19;92.12
28935;BME280;16044;52.726;-2.108;2022-12-16T07:55:14;100791.69;;;-9.20;91.87
28935;BME280;16044;52.726;-2.108;2022-12-16T07:58:00;100788.16;;;-9.21;91.78
28935;BME280;16044;52.726;-2.108;2022-12-16T08:00:45;100798.66;;;-9.21;91.80
28935;BME280;16044;52.726;-2.108;2022-12-16T08:03:35;100806.63;;;-9.22;91.50
28935;BME280;16044;52.726;-2.108;2022-12-16T08:06:21;100805.69;;;-9.21;91.92
28935;BME280;16044;52.726;-2.108;2022-12-16T08:09:06;100810.91;;;-9.19;92.10
28935;BME280;16044;52.726;-2.108;2022-12-16T08:11:52;100817.78;;;-9.15;92.09
28935;BME280;16044;52.726;-2.108;2022-12-16T08:14:37;100813.47;;;-9.16;92.19
28935;BME280;16044;52.726;-2.108;2022-12-16T08:17:23;100820.38;;;-9.14;92.22
28935;BME280;16044;52.726;-2.108;2022-12-16T08:20:08;100822.97;;;-9.12;92.35
28935;BME280;16044;52.726;-2.108;2022-12-16T08:22:54;100821.16;;;-9.10;92.27
28935;BME280;16044;52.726;-2.108;2022-12-16T08:25:39;100816.69;;;-9.07;92.08
28935;BME280;16044;52.726;-2.108;2022-12-16T08:28:24;100828.03;;;-9.06;92.16
28935;BME280;16044;52.726;-2.108;2022-12-16T08:31:10;100818.38;;;-9.06;92.28
28935;BME280;16044;52.726;-2.108;2022-12-16T08:33:55;100833.22;;;-9.03;92.57
28935;BME280;16044;52.726;-2.108;2022-12-16T08:36:40;100824.41;;;-9.02;92.87
28935;BME280;16044;52.726;-2.108;2022-12-16T08:39:26;100818.03;;;-8.93;92.57
28935;BME280;16044;52.726;-2.108;2022-12-16T08:42:30;100826.66;;;-8.88;92.83
28935;BME280;16044;52.726;-2.108;2022-12-16T08:45:15;100836.19;;;-8.86;93.39
28935;BME280;16044;52.726;-2.108;2022-12-16T08:48:01;100827.31;;;-8.82;93.31
28935;BME280;16044;52.726;-2.108;2022-12-16T08:50:47;100829.88;;;-8.78;93.85
28935;BME280;16044;52.726;-2.108;2022-12-16T08:53:32;100827.91;;;-8.72;93.19
28935;BME280;16044;52.726;-2.108;2022-12-16T08:56:18;100830.50;;;-8.70;93.68
28935;BME280;16044;52.726;-2.108;2022-12-16T08:59:03;100834.69;;;-8.65;93.31
28935;BME280;16044;52.726;-2.108;2022-12-16T09:02:00;100824.09;;;-8.61;93.38
28935;BME280;16044;52.726;-2.108;2022-12-16T09:04:46;100833.63;;;-8.57;94.21
28935;BME280;16044;52.726;-2.108;2022-12-16T09:07:31;100842.91;;;-8.47;94.52
28935;BME280;16044;52.726;-2.108;2022-12-16T09:10:17;100845.28;;;-8.39;94.61
28935;BME280;16044;52.726;-2.108;2022-12-16T09:13:14;100847.75;;;-8.33;94.97
28935;BME280;16044;52.726;-2.108;2022-12-16T09:16:00;100843.94;;;-8.25;96.47
28935;BME280;16044;52.726;-2.108;2022-12-16T09:18:46;100841.03;;;-8.15;96.17
28935;BME280;16044;52.726;-2.108;2022-12-16T09:21:32;100842.47;;;-8.05;95.98
28935;BME280;16044;52.726;-2.108;2022-12-16T09:24:20;100843.91;;;-7.96;95.81
28935;BME280;16044;52.726;-2.108;2022-12-16T09:27:05;100851.50;;;-7.87;95.85
28935;BME280;16044;52.726;-2.108;2022-12-16T09:29:51;100856.47;;;-7.78;95.94
28935;BME280;16044;52.726;-2.108;2022-12-16T09:32:43;100852.78;;;-7.72;96.10
28935;BME280;16044;52.726;-2.108;2022-12-16T09:35:30;100849.88;;;-7.65;96.25
28935;BME280;16044;52.726;-2.108;2022-12-16T09:38:16;100852.31;;;-7.58;96.44
28935;BME280;16044;52.726;-2.108;2022-12-16T09:41:22;100853.00;;;-7.53;96.40
28935;BME280;16044;52.726;-2.108;2022-12-16T09:50:37;100871.50;;;-7.30;96.62
28935;BME280;16044;52.726;-2.108;2022-12-16T09:53:25;100872.97;;;-7.21;96.81
28935;BME280;16044;52.726;-2.108;2022-12-16T09:56:17;100874.41;;;-7.12;97.37
28935;BME280;16044;52.726;-2.108;2022-12-16T09:59:11;100873.22;;;-7.03;97.79
28935;BME280;16044;52.726;-2.108;2022-12-16T10:01:58;100882.47;;;-6.92;97.55
28935;BME280;16044;52.726;-2.108;2022-12-16T10:04:50;100876.84;;;-6.82;97.58
28935;BME280;16044;52.726;-2.108;2022-12-16T10:07:51;100885.22;;;-6.71;97.78
28935;BME280;16044;52.726;-2.108;2022-12-16T10:14:18;100882.34;;;-6.41;97.80
28935;BME280;16044;52.726;-2.108;2022-12-16T10:17:24;100884.56;;;-6.31;97.98
28935;BME280;16044;52.726;-2.108;2022-12-16T10:20:16;100881.44;;;-6.18;98.88
28935;BME280;16044;52.726;-2.108;2022-12-16T10:23:10;100883.66;;;-6.08;98.55
28935;BME280;16044;52.726;-2.108;2022-12-16T10:29:24;100893.19;;;-5.83;98.81
28935;BME280;16044;52.726;-2.108;2022-12-16T10:32:17;100891.03;;;-5.73;99.42
28935;BME280;16044;52.726;-2.108;2022-12-16T10:35:17;100885.31;;;-5.62;99.51
28935;BME280;16044;52.726;-2.108;2022-12-16T10:38:17;100889.28;;;-5.52;99.34
28935;BME280;16044;52.726;-2.108;2022-12-16T10:41:24;100888.91;;;-5.43;100.00
28935;BME280;16044;52.726;-2.108;2022-12-16T10:44:46;100897.25;;;-5.32;100.00
28935;BME280;16044;52.726;-2.108;2022-12-16T10:47:34;100893.41;;;-5.24;100.00
28935;BME280;16044;52.726;-2.108;2022-12-16T10:50:20;100886.00;;;-5.16;100.00
28935;BME280;16044;52.726;-2.108;2022-12-16T10:53:15;100878.75;;;-5.11;100.00
28935;BME280;16044;52.726;-2.108;2022-12-16T10:59:21;100878.06;;;-4.96;100.00
28935;BME280;16044;52.726;-2.108;2022-12-16T11:02:18;100872.53;;;-4.90;100.00
28935;BME280;16044;52.726;-2.108;2022-12-16T11:05:22;100873.09;;;-4.83;100.00
28935;BME280;16044;52.726;-2.108;2022-12-16T11:08:27;100863.13;;;-4.76;100.00
28935;BME280;16044;52.726;-2.108;2022-12-16T11:11:27;100860.13;;;-4.68;100.00
28935;BME280;16044;52.726;-2.108;2022-12-16T11:17:26;100855.09;;;-4.56;100.00
28935;BME280;16044;52.726;-2.108;2022-12-16T11:23:22;100851.09;;;-4.45;100.00
28935;BME280;16044;52.726;-2.108;2022-12-16T11:29:15;100846.88;;;-4.31;100.00
28935;BME280;16044;52.726;-2.108;2022-12-16T11:32:06;100841.38;;;-4.26;100.00
28935;BME280;16044;52.726;-2.108;2022-12-16T11:35:14;100847.38;;;-4.22;100.00
28935;BME280;16044;52.726;-2.108;2022-12-16T11:38:05;100842.66;;;-4.16;100.00
28935;BME280;16044;52.726;-2.108;2022-12-16T11:41:00;100837.13;;;-4.11;100.00
28935;BME280;16044;52.726;-2.108;2022-12-16T11:43:48;100831.59;;;-4.06;100.00
28935;BME280;16044;52.726;-2.108;2022-12-16T11:46:35;100831.31;;;-4.00;100.00
28935;BME280;16044;52.726;-2.108;2022-12-16T11:49:26;100823.97;;;-3.95;100.00
28935;BME280;16044;52.726;-2.108;2022-12-16T11:52:20;100835.06;;;-3.87;100.00
28935;BME280;16044;52.726;-2.108;2022-12-16T11:55:24;100836.63;;;-3.83;100.00
28935;BME280;16044;52.726;-2.108;2022-12-16T12:01:34;100832.44;;;-3.69;100.00
28935;BME280;16044;52.726;-2.108;2022-12-16T12:04:34;100822.28;;;-3.61;100.00
28935;BME280;16044;52.726;-2.108;2022-12-16T12:11:12;100823.38;;;-3.48;100.00
28935;BME280;16044;52.726;-2.108;2022-12-16T12:14:15;100822.13;;;-3.41;100.00
28935;BME280;16044;52.726;-2.108;2022-12-16T12:26:31;100820.84;;;-3.16;100.00
28935;BME280;16044;52.726;-2.108;2022-12-16T12:30:00;100816.19;;;-3.11;100.00
28935;BME280;16044;52.726;-2.108;2022-12-16T12:33:24;100823.72;;;-3.03;100.00
28935;BME280;16044;52.726;-2.108;2022-12-16T12:36:29;100824.28;;;-2.97;100.00
28935;BME280;16044;52.726;-2.108;2022-12-16T12:39:44;100813.31;;;-2.90;100.00
28935;BME280;16044;52.726;-2.108;2022-12-16T12:42:39;100814.03;;;-2.87;100.00
28935;BME280;16044;52.726;-2.108;2022-12-16T12:49:05;100808.31;;;-2.79;100.00
28935;BME280;16044;52.726;-2.108;2022-12-16T12:58:11;100802.41;;;-2.68;100.00
28935;BME280;16044;52.726;-2.108;2022-12-16T13:00:59;100796.06;;;-2.66;100.00
28935;BME280;16044;52.726;-2.108;2022-12-16T13:03:50;100802.16;;;-2.64;100.00
28935;BME280;16044;52.726;-2.108;2022-12-16T13:06:40;100791.38;;;-2.61;100.00
28935;BME280;16044;52.726;-2.108;2022-12-16T13:09:32;100802.75;;;-2.59;100.00
28935;BME280;16044;52.726;-2.108;2022-12-16T13:12:22;100799.00;;;-2.55;100.00
28935;BME280;16044;52.726;-2.108;2022-12-16T13:15:34;100798.81;;;-2.51;100.00
28935;BME280;16044;52.726;-2.108;2022-12-16T13:24:44;100794.72;;;-2.41;100.00
28935;BME280;16044;52.726;-2.108;2022-12-16T13:27:46;100804.06;;;-2.34;100.00
28935;BME280;16044;52.726;-2.108;2022-12-16T13:30:40;100798.53;;;-2.31;100.00
28935;BME280;16044;52.726;-2.108;2022-12-16T13:33:51;100794.00;;;-2.29;100.00
28935;BME280;16044;52.726;-2.108;2022-12-16T13:36:37;100793.91;;;-2.27;100.00
28935;BME280;16044;52.726;-2.108;2022-12-16T13:39:25;100788.53;;;-2.26;100.00
28935;BME280;16044;52.726;-2.108;2022-12-16T13:42:53;100797.25;;;-2.24;100.00
28935;BME280;16044;52.726;-2.108;2022-12-16T13:45:41;100797.09;;;-2.21;100.00
28935;BME280;16044;52.726;-2.108;2022-12-16T13:48:39;100797.03;;;-2.19;100.00
28935;BME280;16044;52.726;-2.108;2022-12-16T13:54:29;100795.00;;;-2.16;100.00
28935;BME280;16044;52.726;-2.108;2022-12-16T13:57:21;100787.84;;;-2.13;100.00
28935;BME280;16044;52.726;-2.108;2022-12-16T14:00:20;100789.53;;;-2.12;100.00
28935;BME280;16044;52.726;-2.108;2022-12-16T14:03:17;100783.38;;;-2.13;100.00
28935;BME280;16044;52.726;-2.108;2022-12-16T14:06:09;100781.50;;;-2.11;100.00
28935;BME280;16044;52.726;-2.108;2022-12-16T14:09:01;100787.72;;;-2.12;100.00
28935;BME280;16044;52.726;-2.108;2022-12-16T14:12:00;100793.81;;;-2.10;100.00
28935;BME280;16044;52.726;-2.108;2022-12-16T14:14:55;100796.47;;;-2.10;100.00
28935;BME280;16044;52.726;-2.108;2022-12-16T14:18:03;100807.00;;;-2.08;100.00
28935;BME280;16044;52.726;-2.108;2022-12-16T14:21:00;100807.78;;;-2.06;100.00
28935;BME280;16044;52.726;-2.108;2022-12-16T14:23:50;100812.25;;;-2.07;100.00
28935;BME280;16044;52.726;-2.108;2022-12-16T14:26:39;100807.69;;;-2.05;100.00
28935;BME280;16044;52.726;-2.108;2022-12-16T14:29:29;100810.44;;;-2.06;100.00
28935;BME280;16044;52.726;-2.108;2022-12-16T14:32:30;100807.88;;;-2.08;100.00
28935;BME280;16044;52.726;-2.108;2022-12-16T14:35:20;100805.13;;;-2.06;100.00
28935;BME280;16044;52.726;-2.108;2022-12-16T14:38:29;100807.00;;;-2.08;100.00
28935;BME280;16044;52.726;-2.108;2022-12-16T14:41:19;100804.34;;;-2.08;100.00
28935;BME280;16044;52.726;-2.108;2022-12-16T14:44:23;100803.66;;;-2.12;100.00
28935;BME280;16044;52.726;-2.108;2022-12-16T14:47:17;100802.75;;;-2.11;100.00
28935;BME280;16044;52.726;-2.108;2022-12-16T14:50:23;100811.81;;;-2.15;100.00
28935;BME280;16044;52.726;-2.108;2022-12-16T14:53:22;100810.94;;;-2.16;100.00
28935;BME280;16044;52.726;-2.108;2022-12-16T14:56:21;100819.88;;;-2.17;100.00
28935;BME280;16044;52.726;-2.108;2022-12-16T14:59:10;100809.34;;;-2.18;100.00
28935;BME280;16044;52.726;-2.108;2022-12-16T15:01:59;100815.59;;;-2.19;100.00
28935;BME280;16044;52.726;-2.108;2022-12-16T15:05:00;100821.00;;;-2.21;100.00
28935;BME280;16044;52.726;-2.108;2022-12-16T15:07:46;100818.50;;;-2.24;100.00
28935;BME280;16044;52.726;-2.108;2022-12-16T15:10:32;100809.84;;;-2.27;100.00
28935;BME280;16044;52.726;-2.108;2022-12-16T15:13:20;100819.78;;;-2.31;100.00
28935;BME280;16044;52.726;-2.108;2022-12-16T15:16:06;100817.25;;;-2.32;100.00
28935;BME280;16044;52.726;-2.108;2022-12-16T15:19:00;100825.38;;;-2.36;100.00
28935;BME280;16044;52.726;-2.108;2022-12-16T15:21:47;100822.78;;;-2.37;100.00
28935;BME280;16044;52.726;-2.108;2022-12-16T15:24:36;100830.16;;;-2.42;100.00
28935;BME280;16044;52.726;-2.108;2022-12-16T15:27:24;100836.50;;;-2.45;100.00
28935;BME280;16044;52.726;-2.108;2022-12-16T15:36:27;100841.63;;;-2.58;100.00
28935;BME280;16044;52.726;-2.108;2022-12-16T15:39:25;100841.88;;;-2.62;100.00
28935;BME280;16044;52.726;-2.108;2022-12-16T15:48:28;100836.28;;;-2.73;100.00
28935;BME280;16044;52.726;-2.108;2022-12-16T15:54:49;100845.44;;;-2.79;100.00
28935;BME280;16044;52.726;-2.108;2022-12-16T15:57:37;100853.63;;;-2.84;100.00
28935;BME280;16044;52.726;-2.108;2022-12-16T16:00:26;100846.84;;;-2.89;100.00